Escuintla, Guatemala
Current Conditions -  °F | °C
As of 7:00 PM on Saturday 22 Nov 2014 (Local Time) from MGGT Reporting Station
Few Clouds Few Clouds  
Wind Chill: 64°   Ceiling: Unl
Heat Index: 64°   Visibility: 6mi
Dew Point: 59°   Wind: 9mph
Humidity: 83%   Direction: 360°N
Pressure: 30.24"   Gusts: NA
Location:  14.18°N, 90.47°W
Report Text: MGGT 230100Z 36008KT CAVOK 18/15 Q1024 A3024 FEW080
Loading
Personal Weather Stations






























Interactive Weather Map New forecast layout! Learn more

10-Day Weather Forecast

Advertisements
Track Severe Weather on mobile